sensor_id;sensor_type;location;lat;lon;timestamp;noise_LAeq;noise_LA_min;noise_LA_max;noise_LA01;noise_LA95
73663;Laerm;61956;52.540;13.382;2023-05-07T00:00:26;52.65;49.46;58.44;;
73663;Laerm;61956;52.540;13.382;2023-05-07T00:02:55;52.72;49.57;61.72;;
73663;Laerm;61956;52.540;13.382;2023-05-07T00:05:24;52.16;48.97;56.73;;
73663;Laerm;61956;52.540;13.382;2023-05-07T00:07:54;52.20;49.16;57.13;;
73663;Laerm;61956;52.540;13.382;2023-05-07T00:10:26;52.17;48.94;64.82;;
73663;Laerm;61956;52.540;13.382;2023-05-07T00:12:55;54.23;50.08;59.05;;
73663;Laerm;61956;52.540;13.382;2023-05-07T00:15:24;54.42;50.16;60.08;;
73663;Laerm;61956;52.540;13.382;2023-05-07T00:17:54;53.24;49.85;59.86;;
73663;Laerm;61956;52.540;13.382;2023-05-07T00:20:23;53.69;49.80;61.57;;
73663;Laerm;61956;52.540;13.382;2023-05-07T00:22:52;52.42;49.82;57.00;;
73663;Laerm;61956;52.540;13.382;2023-05-07T00:25:24;52.29;49.78;57.04;;
73663;Laerm;61956;52.540;13.382;2023-05-07T00:27:53;52.34;49.66;57.07;;
73663;Laerm;61956;52.540;13.382;2023-05-07T00:30:23;52.28;49.50;57.20;;
73663;Laerm;61956;52.540;13.382;2023-05-07T00:32:52;52.24;49.65;56.46;;
73663;Laerm;61956;52.540;13.382;2023-05-07T00:35:22;52.48;49.68;57.03;;
73663;Laerm;61956;52.540;13.382;2023-05-07T00:37:51;52.50;49.25;57.37;;
73663;Laerm;61956;52.540;13.382;2023-05-07T00:40:21;51.91;48.80;55.53;;
73663;Laerm;61956;52.540;13.382;2023-05-07T00:42:53;51.91;48.80;55.53;;
73663;Laerm;61956;52.540;13.382;2023-05-07T00:45:26;51.99;48.42;55.41;;
73663;Laerm;61956;52.540;13.382;2023-05-07T00:48:00;52.25;48.82;58.74;;
73663;Laerm;61956;52.540;13.382;2023-05-07T00:50:30;52.27;48.60;57.82;;
73663;Laerm;61956;52.540;13.382;2023-05-07T00:53:00;52.15;48.97;55.57;;
73663;Laerm;61956;52.540;13.382;2023-05-07T00:55:30;52.23;48.56;56.31;;
73663;Laerm;61956;52.540;13.382;2023-05-07T00:58:01;52.07;48.59;55.42;;
73663;Laerm;61956;52.540;13.382;2023-05-07T01:00:33;51.87;48.75;55.98;;
73663;Laerm;61956;52.540;13.382;2023-05-07T01:03:03;52.09;48.76;57.40;;
73663;Laerm;61956;52.540;13.382;2023-05-07T01:05:34;825.21;0.00;18494647683753925093697034753859.04;;
73663;Laerm;61956;52.540;13.382;2023-05-07T01:08:04;51.89;48.73;56.02;;
73663;Laerm;61956;52.540;13.382;2023-05-07T01:10:34;51.88;49.00;55.20;;
73663;Laerm;61956;52.540;13.382;2023-05-07T01:13:06;52.11;48.68;57.53;;
73663;Laerm;61956;52.540;13.382;2023-05-07T01:15:36;51.91;48.62;55.28;;
73663;Laerm;61956;52.540;13.382;2023-05-07T01:18:07;52.08;48.58;59.22;;
73663;Laerm;61956;52.540;13.382;2023-05-07T01:20:36;51.81;48.75;55.19;;
73663;Laerm;61956;52.540;13.382;2023-05-07T01:23:10;51.98;48.83;56.19;;
73663;Laerm;61956;52.540;13.382;2023-05-07T01:25:40;52.08;49.24;55.07;;
73663;Laerm;61956;52.540;13.382;2023-05-07T01:28:11;51.95;49.22;55.09;;
73663;Laerm;61956;52.540;13.382;2023-05-07T01:30:48;52.17;49.17;62.53;;
73663;Laerm;61956;52.540;13.382;2023-05-07T01:33:21;51.96;49.01;55.18;;
73663;Laerm;61956;52.540;13.382;2023-05-07T01:35:53;51.94;48.87;57.27;;
73663;Laerm;61956;52.540;13.382;2023-05-07T01:38:27;52.00;48.98;56.87;;
73663;Laerm;61956;52.540;13.382;2023-05-07T01:40:58;52.42;49.96;55.36;;
73663;Laerm;61956;52.540;13.382;2023-05-07T01:43:28;52.28;49.62;55.75;;
73663;Laerm;61956;52.540;13.382;2023-05-07T01:45:58;52.21;49.34;55.94;;
73663;Laerm;61956;52.540;13.382;2023-05-07T01:48:29;52.21;49.48;55.13;;
73663;Laerm;61956;52.540;13.382;2023-05-07T01:50:59;52.04;49.30;55.11;;
73663;Laerm;61956;52.540;13.382;2023-05-07T01:53:36;52.05;49.22;56.44;;
73663;Laerm;61956;52.540;13.382;2023-05-07T01:56:06;52.01;49.20;54.85;;
73663;Laerm;61956;52.540;13.382;2023-05-07T01:58:38;52.05;48.99;56.09;;
73663;Laerm;61956;52.540;13.382;2023-05-07T02:01:08;52.01;48.86;55.49;;
73663;Laerm;61956;52.540;13.382;2023-05-07T02:03:37;52.12;48.70;56.85;;
73663;Laerm;61956;52.540;13.382;2023-05-07T02:06:13;51.92;48.54;55.46;;
73663;Laerm;61956;52.540;13.382;2023-05-07T02:08:46;52.67;48.80;58.68;;
73663;Laerm;61956;52.540;13.382;2023-05-07T02:11:16;53.43;48.81;59.80;;
73663;Laerm;61956;52.540;13.382;2023-05-07T02:13:46;52.01;48.46;55.89;;
73663;Laerm;61956;52.540;13.382;2023-05-07T02:16:15;51.84;48.39;56.55;;
73663;Laerm;61956;52.540;13.382;2023-05-07T02:18:45;51.88;48.52;56.09;;
73663;Laerm;61956;52.540;13.382;2023-05-07T02:21:14;51.85;48.47;56.04;;
73663;Laerm;61956;52.540;13.382;2023-05-07T02:23:46;53.17;49.02;59.85;;
73663;Laerm;61956;52.540;13.382;2023-05-07T02:26:16;52.98;48.28;58.25;;
73663;Laerm;61956;52.540;13.382;2023-05-07T02:28:45;53.00;48.87;60.31;;
73663;Laerm;61956;52.540;13.382;2023-05-07T02:31:14;52.97;49.53;58.63;;
73663;Laerm;61956;52.540;13.382;2023-05-07T02:33:44;52.18;48.79;55.77;;
73663;Laerm;61956;52.540;13.382;2023-05-07T02:36:14;52.02;49.07;55.65;;
73663;Laerm;61956;52.540;13.382;2023-05-07T02:39:00;52.99;49.02;59.41;;
73663;Laerm;61956;52.540;13.382;2023-05-07T02:41:29;52.33;48.77;57.67;;
73663;Laerm;61956;52.540;13.382;2023-05-07T02:43:59;51.85;48.77;55.26;;
73663;Laerm;61956;52.540;13.382;2023-05-07T02:46:28;51.89;48.80;55.85;;
73663;Laerm;61956;52.540;13.382;2023-05-07T02:49:05;52.52;48.69;57.88;;
73663;Laerm;61956;52.540;13.382;2023-05-07T02:51:34;52.52;48.81;58.12;;
73663;Laerm;61956;52.540;13.382;2023-05-07T02:54:11;51.92;48.81;55.45;;
73663;Laerm;61956;52.540;13.382;2023-05-07T02:56:40;51.95;48.85;55.16;;
73663;Laerm;61956;52.540;13.382;2023-05-07T02:59:09;51.92;48.78;55.22;;
73663;Laerm;61956;52.540;13.382;2023-05-07T03:01:41;51.85;48.49;55.05;;
73663;Laerm;61956;52.540;13.382;2023-05-07T03:04:12;52.13;49.12;56.43;;
73663;Laerm;61956;52.540;13.382;2023-05-07T03:06:41;52.10;49.10;55.27;;
73663;Laerm;61956;52.540;13.382;2023-05-07T03:09:13;52.06;49.04;55.88;;
73663;Laerm;61956;52.540;13.382;2023-05-07T03:11:43;52.16;49.23;56.87;;
73663;Laerm;61956;52.540;13.382;2023-05-07T03:14:12;52.00;49.09;54.93;;
73663;Laerm;61956;52.540;13.382;2023-05-07T03:16:41;52.24;49.20;60.12;;
73663;Laerm;61956;52.540;13.382;2023-05-07T03:19:11;51.93;48.58;55.77;;
73663;Laerm;61956;52.540;13.382;2023-05-07T03:21:40;52.31;49.14;57.10;;
73663;Laerm;61956;52.540;13.382;2023-05-07T03:24:09;52.67;49.07;60.25;;
73663;Laerm;61956;52.540;13.382;2023-05-07T03:26:41;52.25;48.81;59.78;;
73663;Laerm;61956;52.540;13.382;2023-05-07T03:29:10;52.17;48.69;59.16;;
73663;Laerm;61956;52.540;13.382;2023-05-07T03:31:39;52.13;49.18;56.25;;
73663;Laerm;61956;52.540;13.382;2023-05-07T03:34:08;52.30;49.11;57.28;;
73663;Laerm;61956;52.540;13.382;2023-05-07T03:36:38;52.05;49.19;57.06;;
73663;Laerm;61956;52.540;13.382;2023-05-07T03:39:10;52.21;49.01;60.98;;
73663;Laerm;61956;52.540;13.382;2023-05-07T03:41:43;52.42;49.40;58.36;;
73663;Laerm;61956;52.540;13.382;2023-05-07T03:44:13;52.50;49.24;57.45;;
73663;Laerm;61956;52.540;13.382;2023-05-07T03:46:42;53.09;49.06;58.17;;
73663;Laerm;61956;52.540;13.382;2023-05-07T03:49:12;53.88;48.70;59.65;;
73663;Laerm;61956;52.540;13.382;2023-05-07T03:51:41;53.51;48.78;58.58;;
73663;Laerm;61956;52.540;13.382;2023-05-07T03:54:10;53.56;50.13;59.46;;
73663;Laerm;61956;52.540;13.382;2023-05-07T03:56:46;53.84;50.05;59.14;;
73663;Laerm;61956;52.540;13.382;2023-05-07T03:59:15;53.91;50.01;59.31;;
73663;Laerm;61956;52.540;13.382;2023-05-07T04:01:46;53.91;49.80;60.80;;
73663;Laerm;61956;52.540;13.382;2023-05-07T04:04:17;52.66;49.91;57.80;;
73663;Laerm;61956;52.540;13.382;2023-05-07T04:09:16;56.85;51.55;58.54;;
73663;Laerm;61956;52.540;13.382;2023-05-07T04:11:50;57.08;53.01;58.59;;
73663;Laerm;61956;52.540;13.382;2023-05-07T04:14:19;56.63;51.57;58.41;;
73663;Laerm;61956;52.540;13.382;2023-05-07T04:16:49;56.30;51.05;58.49;;
73663;Laerm;61956;52.540;13.382;2023-05-07T04:19:18;55.94;50.92;59.50;;
73663;Laerm;61956;52.540;13.382;2023-05-07T04:21:51;55.77;50.28;60.50;;
73663;Laerm;61956;52.540;13.382;2023-05-07T04:24:21;55.48;50.67;59.15;;
73663;Laerm;61956;52.540;13.382;2023-05-07T04:26:53;55.41;50.57;59.65;;
73663;Laerm;61956;52.540;13.382;2023-05-07T04:29:23;55.70;50.56;68.76;;
73663;Laerm;61956;52.540;13.382;2023-05-07T04:31:52;56.27;50.62;69.32;;
73663;Laerm;61956;52.540;13.382;2023-05-07T04:34:22;56.02;51.41;59.52;;
73663;Laerm;61956;52.540;13.382;2023-05-07T04:36:51;55.83;51.17;58.46;;
73663;Laerm;61956;52.540;13.382;2023-05-07T04:39:21;55.41;51.16;58.34;;
73663;Laerm;61956;52.540;13.382;2023-05-07T04:44:22;52.17;48.43;56.74;;
73663;Laerm;61956;52.540;13.382;2023-05-07T04:46:51;52.13;48.57;56.09;;
73663;Laerm;61956;52.540;13.382;2023-05-07T04:49:20;52.04;48.80;56.10;;
73663;Laerm;61956;52.540;13.382;2023-05-07T04:51:52;52.16;48.71;57.06;;
73663;Laerm;61956;52.540;13.382;2023-05-07T04:54:23;52.02;48.61;56.04;;
73663;Laerm;61956;52.540;13.382;2023-05-07T04:56:52;52.00;48.74;55.82;;
73663;Laerm;61956;52.540;13.382;2023-05-07T04:59:24;51.93;48.41;56.42;;
73663;Laerm;61956;52.540;13.382;2023-05-07T05:01:54;52.17;48.43;56.37;;
73663;Laerm;61956;52.540;13.382;2023-05-07T05:04:24;52.28;48.62;57.84;;
73663;Laerm;61956;52.540;13.382;2023-05-07T05:06:54;52.12;48.70;55.92;;
73663;Laerm;61956;52.540;13.382;2023-05-07T05:09:23;52.04;48.88;57.05;;
73663;Laerm;61956;52.540;13.382;2023-05-07T05:11:52;51.95;48.75;55.69;;
73663;Laerm;61956;52.540;13.382;2023-05-07T05:14:24;51.83;48.63;55.84;;
73663;Laerm;61956;52.540;13.382;2023-05-07T05:16:54;51.84;48.60;55.45;;
73663;Laerm;61956;52.540;13.382;2023-05-07T05:21:52;51.94;48.24;58.78;;
73663;Laerm;61956;52.540;13.382;2023-05-07T05:24:21;52.65;48.65;58.48;;
73663;Laerm;61956;52.540;13.382;2023-05-07T05:26:53;52.68;48.42;59.69;;
73663;Laerm;61956;52.540;13.382;2023-05-07T05:29:26;53.14;48.43;59.88;;
73663;Laerm;61956;52.540;13.382;2023-05-07T05:31:56;53.27;48.55;59.71;;
73663;Laerm;61956;52.540;13.382;2023-05-07T05:34:26;53.47;48.58;60.58;;
73663;Laerm;61956;52.540;13.382;2023-05-07T05:36:56;53.37;48.49;60.38;;
73663;Laerm;61956;52.540;13.382;2023-05-07T05:39:25;53.33;48.42;60.80;;
73663;Laerm;61956;52.540;13.382;2023-05-07T05:41:54;52.93;48.38;59.46;;
73663;Laerm;61956;52.540;13.382;2023-05-07T05:44:26;52.97;48.46;60.71;;
73663;Laerm;61956;52.540;13.382;2023-05-07T05:46:56;53.07;48.34;59.58;;
73663;Laerm;61956;52.540;13.382;2023-05-07T05:49:27;53.06;48.23;59.46;;
73663;Laerm;61956;52.540;13.382;2023-05-07T05:51:57;52.82;48.54;58.60;;
73663;Laerm;61956;52.540;13.382;2023-05-07T05:54:29;52.19;48.40;60.15;;
73663;Laerm;61956;52.540;13.382;2023-05-07T05:56:58;51.41;48.04;56.44;;
73663;Laerm;61956;52.540;13.382;2023-05-07T05:59:33;51.66;47.91;56.35;;
73663;Laerm;61956;52.540;13.382;2023-05-07T06:02:02;51.95;48.33;57.86;;
73663;Laerm;61956;52.540;13.382;2023-05-07T06:04:32;51.55;48.32;56.25;;
73663;Laerm;61956;52.540;13.382;2023-05-07T06:07:01;51.55;48.32;56.25;;
73663;Laerm;61956;52.540;13.382;2023-05-07T06:09:31;51.22;48.41;56.48;;
73663;Laerm;61956;52.540;13.382;2023-05-07T06:12:01;51.33;48.29;56.54;;
73663;Laerm;61956;52.540;13.382;2023-05-07T06:14:34;51.09;48.25;57.49;;
73663;Laerm;61956;52.540;13.382;2023-05-07T06:17:03;51.34;48.12;61.18;;
73663;Laerm;61956;52.540;13.382;2023-05-07T06:19:33;51.25;48.29;57.47;;
73663;Laerm;61956;52.540;13.382;2023-05-07T06:22:03;57.51;48.31;65.47;;
73663;Laerm;61956;52.540;13.382;2023-05-07T06:24:34;59.81;57.01;63.36;;
73663;Laerm;61956;52.540;13.382;2023-05-07T06:27:05;59.83;56.95;63.00;;
73663;Laerm;61956;52.540;13.382;2023-05-07T06:29:37;59.91;57.17;63.04;;
73663;Laerm;61956;52.540;13.382;2023-05-07T06:32:13;59.94;56.90;63.39;;
73663;Laerm;61956;52.540;13.382;2023-05-07T06:34:44;60.00;57.12;63.34;;
73663;Laerm;61956;52.540;13.382;2023-05-07T06:37:14;60.06;57.11;64.12;;
73663;Laerm;61956;52.540;13.382;2023-05-07T06:40:07;60.06;56.97;63.73;;
73663;Laerm;61956;52.540;13.382;2023-05-07T06:42:38;60.10;57.08;64.00;;
73663;Laerm;61956;52.540;13.382;2023-05-07T06:45:30;60.18;57.08;63.93;;
73663;Laerm;61956;52.540;13.382;2023-05-07T06:47:59;60.24;57.16;65.74;;
73663;Laerm;61956;52.540;13.382;2023-05-07T06:50:32;60.21;57.19;64.06;;
73663;Laerm;61956;52.540;13.382;2023-05-07T06:53:01;60.20;57.08;64.41;;
73663;Laerm;61956;52.540;13.382;2023-05-07T06:55:32;60.19;57.04;63.86;;
73663;Laerm;61956;52.540;13.382;2023-05-07T06:58:01;60.20;57.03;63.85;;
73663;Laerm;61956;52.540;13.382;2023-05-07T07:00:35;60.18;57.12;63.73;;
73663;Laerm;61956;52.540;13.382;2023-05-07T07:03:05;60.33;57.34;64.61;;
73663;Laerm;61956;52.540;13.382;2023-05-07T07:05:35;60.22;57.13;63.75;;
73663;Laerm;61956;52.540;13.382;2023-05-07T07:08:05;60.19;57.12;63.50;;
73663;Laerm;61956;52.540;13.382;2023-05-07T07:10:34;60.03;57.13;64.32;;
73663;Laerm;61956;52.540;13.382;2023-05-07T07:13:03;59.98;56.92;64.63;;
73663;Laerm;61956;52.540;13.382;2023-05-07T07:15:35;59.90;57.17;63.41;;
73663;Laerm;61956;52.540;13.382;2023-05-07T07:18:05;59.92;57.28;63.12;;
73663;Laerm;61956;52.540;13.382;2023-05-07T07:20:34;59.93;57.29;63.29;;
73663;Laerm;61956;52.540;13.382;2023-05-07T07:23:05;59.92;57.25;62.92;;
73663;Laerm;61956;52.540;13.382;2023-05-07T07:25:34;59.91;57.25;63.61;;
73663;Laerm;61956;52.540;13.382;2023-05-07T07:28:03;59.90;57.29;63.50;;
73663;Laerm;61956;52.540;13.382;2023-05-07T07:30:35;59.92;57.30;63.72;;
73663;Laerm;61956;52.540;13.382;2023-05-07T07:33:05;59.94;57.28;63.92;;
73663;Laerm;61956;52.540;13.382;2023-05-07T07:35:36;59.94;57.39;65.16;;
73663;Laerm;61956;52.540;13.382;2023-05-07T07:38:06;59.89;57.44;63.43;;
73663;Laerm;61956;52.540;13.382;2023-05-07T07:40:36;59.84;57.24;62.97;;
73663;Laerm;61956;52.540;13.382;2023-05-07T07:43:10;59.92;57.44;69.27;;
73663;Laerm;61956;52.540;13.382;2023-05-07T07:45:42;59.73;57.18;64.39;;
73663;Laerm;61956;52.540;13.382;2023-05-07T07:48:12;59.67;57.16;62.62;;
73663;Laerm;61956;52.540;13.382;2023-05-07T07:50:41;59.61;57.36;63.47;;
73663;Laerm;61956;52.540;13.382;2023-05-07T07:53:10;59.58;57.23;62.70;;
73663;Laerm;61956;52.540;13.382;2023-05-07T07:55:40;59.54;57.23;63.16;;
73663;Laerm;61956;52.540;13.382;2023-05-07T07:58:12;59.60;57.32;62.96;;
73663;Laerm;61956;52.540;13.382;2023-05-07T08:00:45;59.72;57.36;64.91;;
73663;Laerm;61956;52.540;13.382;2023-05-07T08:03:15;59.63;57.19;63.90;;
73663;Laerm;61956;52.540;13.382;2023-05-07T08:05:50;59.56;57.25;62.37;;
73663;Laerm;61956;52.540;13.382;2023-05-07T08:08:19;59.59;57.31;63.66;;
73663;Laerm;61956;52.540;13.382;2023-05-07T08:10:49;59.60;57.23;62.61;;
73663;Laerm;61956;52.540;13.382;2023-05-07T08:13:26;59.60;57.25;62.95;;
73663;Laerm;61956;52.540;13.382;2023-05-07T08:15:58;59.65;57.23;62.74;;
73663;Laerm;61956;52.540;13.382;2023-05-07T08:18:27;59.86;57.36;66.21;;
73663;Laerm;61956;52.540;13.382;2023-05-07T08:21:00;59.68;57.38;63.32;;
73663;Laerm;61956;52.540;13.382;2023-05-07T08:23:31;59.72;57.07;63.02;;
73663;Laerm;61956;52.540;13.382;2023-05-07T08:26:01;59.77;57.50;63.04;;
73663;Laerm;61956;52.540;13.382;2023-05-07T08:28:30;59.86;57.24;63.50;;
73663;Laerm;61956;52.540;13.382;2023-05-07T08:31:02;59.87;57.19;64.64;;
73663;Laerm;61956;52.540;13.382;2023-05-07T08:33:35;59.92;57.34;63.38;;
73663;Laerm;61956;52.540;13.382;2023-05-07T08:36:05;59.96;57.31;63.97;;
73663;Laerm;61956;52.540;13.382;2023-05-07T08:38:35;60.21;57.49;68.60;;
73663;Laerm;61956;52.540;13.382;2023-05-07T08:41:09;60.01;57.31;64.15;;
73663;Laerm;61956;52.540;13.382;2023-05-07T08:43:41;60.10;57.56;65.43;;
73663;Laerm;61956;52.540;13.382;2023-05-07T08:46:20;60.24;57.18;63.87;;
73663;Laerm;61956;52.540;13.382;2023-05-07T08:48:54;60.00;57.30;63.97;;
73663;Laerm;61956;52.540;13.382;2023-05-07T08:51:23;59.97;57.23;63.75;;
73663;Laerm;61956;52.540;13.382;2023-05-07T08:53:53;60.02;57.32;63.33;;
73663;Laerm;61956;52.540;13.382;2023-05-07T08:56:27;60.04;57.31;64.83;;
73663;Laerm;61956;52.540;13.382;2023-05-07T08:58:57;60.02;57.25;63.23;;
73663;Laerm;61956;52.540;13.382;2023-05-07T09:01:34;60.11;57.51;63.67;;
73663;Laerm;61956;52.540;13.382;2023-05-07T09:04:04;60.01;57.47;63.24;;
73663;Laerm;61956;52.540;13.382;2023-05-07T09:06:34;60.02;57.25;63.30;;
73663;Laerm;61956;52.540;13.382;2023-05-07T09:09:04;59.99;57.18;63.44;;
73663;Laerm;61956;52.540;13.382;2023-05-07T09:11:34;60.38;57.40;70.45;;
73663;Laerm;61956;52.540;13.382;2023-05-07T09:14:03;60.03;57.32;63.86;;
73663;Laerm;61956;52.540;13.382;2023-05-07T09:16:40;60.01;57.32;63.91;;
73663;Laerm;61956;52.540;13.382;2023-05-07T09:19:10;60.01;57.49;63.24;;
73663;Laerm;61956;52.540;13.382;2023-05-07T09:21:44;60.05;57.43;69.10;;
73663;Laerm;61956;52.540;13.382;2023-05-07T09:24:16;60.05;57.46;63.51;;
73663;Laerm;61956;52.540;13.382;2023-05-07T09:26:45;60.03;57.33;63.78;;
73663;Laerm;61956;52.540;13.382;2023-05-07T09:29:16;60.01;56.93;63.70;;
73663;Laerm;61956;52.540;13.382;2023-05-07T09:31:48;60.03;57.57;63.59;;
73663;Laerm;61956;52.540;13.382;2023-05-07T09:34:18;59.98;57.36;63.45;;
73663;Laerm;61956;52.540;13.382;2023-05-07T09:36:48;59.96;57.36;63.25;;
73663;Laerm;61956;52.540;13.382;2023-05-07T09:39:18;59.97;57.36;63.38;;
73663;Laerm;61956;52.540;13.382;2023-05-07T09:41:49;59.98;57.44;63.69;;
73663;Laerm;61956;52.540;13.382;2023-05-07T09:44:32;59.94;57.36;63.81;;
73663;Laerm;61956;52.540;13.382;2023-05-07T09:47:05;60.01;57.38;63.42;;
73663;Laerm;61956;52.540;13.382;2023-05-07T09:49:43;60.00;57.36;64.23;;
73663;Laerm;61956;52.540;13.382;2023-05-07T09:52:17;60.06;57.49;63.59;;
73663;Laerm;61956;52.540;13.382;2023-05-07T09:54:53;60.03;57.11;63.40;;
73663;Laerm;61956;52.540;13.382;2023-05-07T09:57:34;60.00;57.28;63.30;;
73663;Laerm;61956;52.540;13.382;2023-05-07T10:00:09;59.98;57.40;63.54;;
73663;Laerm;61956;52.540;13.382;2023-05-07T10:02:52;60.01;57.20;63.40;;
73663;Laerm;61956;52.540;13.382;2023-05-07T10:05:30;60.01;57.30;63.35;;
73663;Laerm;61956;52.540;13.382;2023-05-07T10:08:01;60.02;57.23;63.69;;
73663;Laerm;61956;52.540;13.382;2023-05-07T10:10:35;60.01;57.21;63.70;;
73663;Laerm;61956;52.540;13.382;2023-05-07T10:13:08;60.01;57.51;63.15;;
73663;Laerm;61956;52.540;13.382;2023-05-07T10:15:44;60.02;57.24;63.31;;
73663;Laerm;61956;52.540;13.382;2023-05-07T10:18:20;60.00;57.46;63.61;;
73663;Laerm;61956;52.540;13.382;2023-05-07T10:21:07;60.01;57.35;63.25;;
73663;Laerm;61956;52.540;13.382;2023-05-07T10:23:38;59.98;57.46;63.45;;
73663;Laerm;61956;52.540;13.382;2023-05-07T10:26:09;60.03;57.26;63.63;;
73663;Laerm;61956;52.540;13.382;2023-05-07T10:28:42;59.98;57.44;64.02;;
73663;Laerm;61956;52.540;13.382;2023-05-07T10:34:26;60.05;57.49;63.69;;
73663;Laerm;61956;52.540;13.382;2023-05-07T10:36:57;59.99;57.27;63.86;;
73663;Laerm;61956;52.540;13.382;2023-05-07T10:39:27;60.09;57.27;63.25;;
73663;Laerm;61956;52.540;13.382;2023-05-07T10:42:08;60.05;57.35;63.64;;
73663;Laerm;61956;52.540;13.382;2023-05-07T10:44:40;60.02;57.08;63.71;;
73663;Laerm;61956;52.540;13.382;2023-05-07T10:47:16;60.03;57.22;63.39;;
73663;Laerm;61956;52.540;13.382;2023-05-07T10:50:24;60.05;57.16;63.47;;
73663;Laerm;61956;52.540;13.382;2023-05-07T10:53:22;60.00;57.52;64.29;;
73663;Laerm;61956;52.540;13.382;2023-05-07T10:56:29;59.98;57.15;63.81;;
73663;Laerm;61956;52.540;13.382;2023-05-07T10:59:35;59.99;57.32;68.05;;
73663;Laerm;61956;52.540;13.382;2023-05-07T11:02:23;60.38;57.17;66.28;;
73663;Laerm;61956;52.540;13.382;2023-05-07T11:05:20;59.99;57.25;66.20;;
73663;Laerm;61956;52.540;13.382;2023-05-07T11:08:15;59.93;57.28;64.02;;
73663;Laerm;61956;52.540;13.382;2023-05-07T11:10:56;59.97;57.39;63.64;;
73663;Laerm;61956;52.540;13.382;2023-05-07T11:13:46;59.95;57.16;63.61;;
73663;Laerm;61956;52.540;13.382;2023-05-07T11:16:33;59.96;57.43;64.39;;
73663;Laerm;61956;52.540;13.382;2023-05-07T11:19:48;60.07;57.37;63.54;;
73663;Laerm;61956;52.540;13.382;2023-05-07T11:22:38;60.04;57.31;63.77;;
73663;Laerm;61956;52.540;13.382;2023-05-07T11:25:34;59.97;57.32;64.52;;
73663;Laerm;61956;52.540;13.382;2023-05-07T11:28:11;59.99;57.43;63.32;;
73663;Laerm;61956;52.540;13.382;2023-05-07T11:30:46;60.00;57.37;63.96;;
73663;Laerm;61956;52.540;13.382;2023-05-07T11:33:19;59.95;57.26;63.48;;
73663;Laerm;61956;52.540;13.382;2023-05-07T11:35:51;59.99;57.48;63.41;;
73663;Laerm;61956;52.540;13.382;2023-05-07T11:38:25;59.98;57.39;64.05;;
73663;Laerm;61956;52.540;13.382;2023-05-07T11:40:59;59.99;57.33;66.41;;
73663;Laerm;61956;52.540;13.382;2023-05-07T11:43:31;59.96;57.38;65.18;;
73663;Laerm;61956;52.540;13.382;2023-05-07T11:46:07;59.94;57.34;63.54;;
73663;Laerm;61956;52.540;13.382;2023-05-07T11:48:37;59.95;57.26;63.17;;
73663;Laerm;61956;52.540;13.382;2023-05-07T11:51:07;59.95;57.31;63.36;;
73663;Laerm;61956;52.540;13.382;2023-05-07T11:53:40;59.96;57.31;63.38;;
73663;Laerm;61956;52.540;13.382;2023-05-07T11:56:15;59.92;57.41;63.47;;
73663;Laerm;61956;52.540;13.382;2023-05-07T11:58:46;60.09;57.43;71.04;;
73663;Laerm;61956;52.540;13.382;2023-05-07T12:01:17;59.94;57.40;63.28;;
73663;Laerm;61956;52.540;13.382;2023-05-07T12:03:46;59.89;57.48;63.55;;
73663;Laerm;61956;52.540;13.382;2023-05-07T12:06:16;59.96;57.50;63.39;;
73663;Laerm;61956;52.540;13.382;2023-05-07T12:08:46;60.65;57.73;64.57;;
73663;Laerm;61956;52.540;13.382;2023-05-07T12:11:24;59.91;57.52;63.16;;
73663;Laerm;61956;52.540;13.382;2023-05-07T12:16:23;63.92;58.26;66.76;;
73663;Laerm;61956;52.540;13.382;2023-05-07T12:21:23;63.57;58.25;66.54;;
73663;Laerm;61956;52.540;13.382;2023-05-07T12:23:52;63.92;58.44;66.62;;
73663;Laerm;61956;52.540;13.382;2023-05-07T12:26:24;63.75;58.39;67.11;;
73663;Laerm;61956;52.540;13.382;2023-05-07T12:28:54;64.13;58.12;67.06;;
73663;Laerm;61956;52.540;13.382;2023-05-07T12:31:25;64.22;59.57;69.05;;
73663;Laerm;61956;52.540;13.382;2023-05-07T12:33:54;64.28;59.14;67.04;;
73663;Laerm;61956;52.540;13.382;2023-05-07T12:36:23;64.02;58.84;66.97;;
73663;Laerm;61956;52.540;13.382;2023-05-07T12:38:54;63.69;58.23;66.66;;
73663;Laerm;61956;52.540;13.382;2023-05-07T12:41:26;64.20;59.99;66.89;;
73663;Laerm;61956;52.540;13.382;2023-05-07T12:43:56;64.23;59.57;66.90;;
73663;Laerm;61956;52.540;13.382;2023-05-07T12:46:26;63.98;58.26;66.80;;
73663;Laerm;61956;52.540;13.382;2023-05-07T12:48:55;64.14;58.83;67.13;;
73663;Laerm;61956;52.540;13.382;2023-05-07T12:51:24;63.76;58.65;66.60;;
73663;Laerm;61956;52.540;13.382;2023-05-07T12:53:56;64.04;59.59;67.76;;
73663;Laerm;61956;52.540;13.382;2023-05-07T12:56:31;63.76;58.12;66.76;;
73663;Laerm;61956;52.540;13.382;2023-05-07T12:59:00;64.31;60.17;66.88;;
73663;Laerm;61956;52.540;13.382;2023-05-07T13:01:30;64.06;58.51;66.90;;
73663;Laerm;61956;52.540;13.382;2023-05-07T13:04:03;64.24;59.82;66.66;;
73663;Laerm;61956;52.540;13.382;2023-05-07T13:06:32;64.12;58.51;66.89;;
73663;Laerm;61956;52.540;13.382;2023-05-07T13:09:01;64.13;58.49;66.83;;
73663;Laerm;61956;52.540;13.382;2023-05-07T13:11:33;64.23;58.87;67.44;;
73663;Laerm;61956;52.540;13.382;2023-05-07T13:14:02;64.27;59.21;70.03;;
73663;Laerm;61956;52.540;13.382;2023-05-07T13:16:32;64.36;59.39;71.36;;
73663;Laerm;61956;52.540;13.382;2023-05-07T13:19:01;63.95;58.25;67.11;;
73663;Laerm;61956;52.540;13.382;2023-05-07T13:23:59;61.42;57.39;65.39;;
73663;Laerm;61956;52.540;13.382;2023-05-07T13:26:33;61.90;57.56;65.76;;
73663;Laerm;61956;52.540;13.382;2023-05-07T13:29:02;61.52;57.34;65.50;;
73663;Laerm;61956;52.540;13.382;2023-05-07T13:31:32;61.87;57.45;65.66;;
73663;Laerm;61956;52.540;13.382;2023-05-07T13:34:01;61.24;57.47;65.67;;
73663;Laerm;61956;52.540;13.382;2023-05-07T13:36:30;61.34;57.26;65.35;;
73663;Laerm;61956;52.540;13.382;2023-05-07T13:39:03;61.20;57.49;65.82;;
73663;Laerm;61956;52.540;13.382;2023-05-07T13:41:35;61.16;57.47;65.56;;
73663;Laerm;61956;52.540;13.382;2023-05-07T13:44:04;61.19;57.42;65.51;;
73663;Laerm;61956;52.540;13.382;2023-05-07T13:46:33;60.93;57.43;65.57;;
73663;Laerm;61956;52.540;13.382;2023-05-07T13:49:03;61.12;57.49;66.09;;
73663;Laerm;61956;52.540;13.382;2023-05-07T13:51:32;61.12;57.26;65.57;;
73663;Laerm;61956;52.540;13.382;2023-05-07T13:54:01;61.04;57.41;65.58;;
73663;Laerm;61956;52.540;13.382;2023-05-07T13:56:30;61.03;57.17;65.34;;
73663;Laerm;61956;52.540;13.382;2023-05-07T13:59:02;61.02;57.27;65.24;;
73663;Laerm;61956;52.540;13.382;2023-05-07T14:01:31;61.18;57.53;65.51;;
73663;Laerm;61956;52.540;13.382;2023-05-07T14:04:00;61.14;57.35;65.79;;
73663;Laerm;61956;52.540;13.382;2023-05-07T14:06:30;61.17;57.38;66.19;;
73663;Laerm;61956;52.540;13.382;2023-05-07T14:08:59;61.03;57.48;65.47;;
73663;Laerm;61956;52.540;13.382;2023-05-07T14:11:28;61.03;57.26;65.91;;
73663;Laerm;61956;52.540;13.382;2023-05-07T14:13:57;61.00;57.41;65.76;;
73663;Laerm;61956;52.540;13.382;2023-05-07T14:16:29;61.20;57.26;66.08;;